Angleton, Texas
Current Conditions -  °F | °C
As of 3:53 PM on Sunday 23 Nov 2014 (Local Time) from KLBX Reporting Station
Clear Clear  
Wind Chill: 74°   Ceiling: Unl
Heat Index: 74°   Visibility: 10mi
Dew Point: 61°   Wind: 13mph
Humidity: 64%   Direction: 200°SSW
Pressure: 29.57"   Gusts: NA
Location:  29.16°N, 95.43°W
Report Text: KLBX 232153Z AUTO 20011KT 10SM CLR 23/16 A2957 RMK AO2 SLP014 T02330161
Loading
Personal Weather Stations






























Interactive Weather Map New forecast layout! Learn more

10-Day Weather Forecast

Advertisements
Track Severe Weather on mobile